Time;durP1;ratioP1;P1;durP2;ratioP2;P2;SDS_P1;SDS_P2;PMS_P1;PMS_P2;Temp;Humidity;BMP_temperature;BMP_pressure;BME280_temperature;BME280_humidity;BME280_pressure;Samples;Min_cycle;Max_cycle;Signal;HPM_P1;HPM_P2
2023/03/14 00:02:04;;;;;;;1.27;1.27;;;;;;;;;;4957625;28;20198;-55
2023/03/14 00:04:30;;;;;;;1.20;1.20;;;;;;;;;;4949594;28;20191;-55
2023/03/14 00:06:56;;;;;;;1.10;1.10;;;;;;;;;;4950556;28;22373;-54
2023/03/14 00:09:22;;;;;;;1.00;1.00;;;;;;;;;;4930850;28;20618;-54
2023/03/14 00:11:48;;;;;;;1.10;1.10;;;;;;;;;;4947693;28;20249;-54
2023/03/14 00:14:15;;;;;;;1.30;1.30;;;;;;;;;;4945982;28;20863;-54
2023/03/14 00:16:41;;;;;;;1.00;1.00;;;;;;;;;;4950396;28;20203;-54
2023/03/14 00:19:08;;;;;;;1.27;1.27;;;;;;;;;;4949341;28;20310;-55
2023/03/14 00:21:34;;;;;;;1.30;1.30;;;;;;;;;;4949222;28;20831;-54
2023/03/14 00:24:00;;;;;;;1.20;1.20;;;;;;;;;;4938743;28;20202;-55
2023/03/14 00:26:26;;;;;;;1.10;1.10;;;;;;;;;;4949738;28;20325;-55
2023/03/14 00:28:52;;;;;;;1.17;1.17;;;;;;;;;;4945365;28;20281;-55
2023/03/14 00:31:18;;;;;;;1.07;1.07;;;;;;;;;;4939881;28;20226;-55
2023/03/14 00:33:44;;;;;;;1.13;1.13;;;;;;;;;;4949245;28;20179;-54
2023/03/14 00:36:11;;;;;;;1.00;1.00;;;;;;;;;;4950145;28;20270;-55
2023/03/14 00:38:37;;;;;;;1.10;1.10;;;;;;;;;;4935872;28;20238;-55
2023/03/14 00:41:07;;;;;;;1.00;1.00;;;;;;;;;;4952959;28;20199;-55
2023/03/14 00:43:33;;;;;;;1.20;1.20;;;;;;;;;;4954125;28;20283;-54
2023/03/14 00:45:59;;;;;;;0.97;0.97;;;;;;;;;;4955682;28;20725;-54
2023/03/14 00:48:24;;;;;;;0.97;0.97;;;;;;;;;;4956384;28;20651;-55
2023/03/14 00:50:50;;;;;;;1.00;1.00;;;;;;;;;;4958648;28;20741;-54
2023/03/14 00:53:16;;;;;;;1.10;1.10;;;;;;;;;;4953901;28;20577;-54
2023/03/14 00:55:43;;;;;;;1.10;1.10;;;;;;;;;;4954905;28;20739;-54
2023/03/14 00:58:09;;;;;;;1.13;1.13;;;;;;;;;;4959654;28;20179;-54
2023/03/14 01:00:35;;;;;;;1.20;1.20;;;;;;;;;;4956347;28;20559;-55
2023/03/14 01:03:01;;;;;;;0.90;0.90;;;;;;;;;;4954822;28;20188;-54
2023/03/14 01:05:27;;;;;;;1.10;1.10;;;;;;;;;;4958096;28;20235;-54
2023/03/14 01:07:53;;;;;;;0.80;0.80;;;;;;;;;;4935409;28;20217;-54
2023/03/14 01:10:19;;;;;;;1.00;1.00;;;;;;;;;;4957511;28;20191;-53
2023/03/14 01:12:45;;;;;;;1.20;1.20;;;;;;;;;;4941425;28;20861;-54
2023/03/14 01:15:11;;;;;;;1.00;1.00;;;;;;;;;;4932156;28;20564;-54
2023/03/14 01:17:37;;;;;;;1.20;1.20;;;;;;;;;;4933857;28;20556;-54
2023/03/14 01:20:04;;;;;;;1.40;1.40;;;;;;;;;;4945535;28;20199;-54
2023/03/14 01:22:30;;;;;;;1.00;1.00;;;;;;;;;;4946101;28;20200;-54
2023/03/14 01:24:56;;;;;;;1.07;1.07;;;;;;;;;;4945346;28;20535;-54
2023/03/14 01:27:22;;;;;;;1.00;1.00;;;;;;;;;;4943153;28;20199;-54
2023/03/14 01:29:48;;;;;;;1.10;1.10;;;;;;;;;;4946020;28;20187;-54
2023/03/14 01:32:14;;;;;;;0.90;0.90;;;;;;;;;;4943112;28;20313;-54
2023/03/14 01:34:40;;;;;;;1.00;1.00;;;;;;;;;;4948984;28;20715;-55
2023/03/14 01:37:07;;;;;;;1.00;1.00;;;;;;;;;;4944945;28;20736;-54
2023/03/14 01:39:33;;;;;;;1.30;1.30;;;;;;;;;;4953797;28;20582;-55
2023/03/14 01:42:00;;;;;;;1.10;1.10;;;;;;;;;;4948575;28;20199;-54
2023/03/14 01:44:26;;;;;;;1.20;1.20;;;;;;;;;;4951292;28;20760;-56
2023/03/14 01:46:52;;;;;;;1.20;1.20;;;;;;;;;;4948000;28;20200;-54
2023/03/14 01:49:36;;;;;;;1.30;1.30;;;;;;;;;;4948710;28;20258;-54
2023/03/14 01:52:04;;;;;;;1.10;1.10;;;;;;;;;;4953988;28;20738;-54
2023/03/14 01:54:43;;;;;;;1.20;1.20;;;;;;;;;;4931478;28;20244;-54
2023/03/14 01:57:15;;;;;;;1.00;1.00;;;;;;;;;;4956243;28;20195;-54
2023/03/14 01:59:42;;;;;;;0.93;0.93;;;;;;;;;;4957495;28;20218;-54
2023/03/14 02:02:09;;;;;;;0.80;0.80;;;;;;;;;;4949985;28;20624;-54
2023/03/14 02:04:35;;;;;;;0.90;0.90;;;;;;;;;;4934278;28;20668;-54
2023/03/14 02:07:25;;;;;;;0.80;0.80;;;;;;;;;;4950791;28;20719;-55
2023/03/14 02:09:51;;;;;;;0.80;0.80;;;;;;;;;;4946343;28;20682;-54
2023/03/14 02:12:17;;;;;;;0.80;0.80;;;;;;;;;;4935043;28;25442;-54
2023/03/14 02:14:47;;;;;;;0.80;0.80;;;;;;;;;;4931211;28;20524;-54
2023/03/14 02:17:13;;;;;;;0.83;0.83;;;;;;;;;;4953613;28;20199;-54
2023/03/14 02:19:58;;;;;;;0.80;0.80;;;;;;;;;;4936472;28;20561;-53
2023/03/14 02:22:24;;;;;;;0.70;0.70;;;;;;;;;;4950961;28;20182;-54
2023/03/14 02:25:05;;;;;;;1.00;1.00;;;;;;;;;;4954131;28;20246;-54
2023/03/14 02:27:31;;;;;;;0.80;0.80;;;;;;;;;;4951734;28;20760;-54
2023/03/14 02:30:01;;;;;;;0.90;0.90;;;;;;;;;;4931877;28;20194;-54
2023/03/14 02:32:28;;;;;;;0.77;0.77;;;;;;;;;;4945422;28;20423;-54
2023/03/14 02:34:55;;;;;;;0.90;0.90;;;;;;;;;;4953894;28;20186;-54
2023/03/14 02:37:21;;;;;;;0.80;0.80;;;;;;;;;;4938213;28;20537;-54
2023/03/14 02:39:49;;;;;;;0.80;0.80;;;;;;;;;;4941382;28;20187;-54
2023/03/14 02:42:15;;;;;;;0.80;0.80;;;;;;;;;;4943106;28;20294;-54
2023/03/14 02:44:51;;;;;;;0.90;0.90;;;;;;;;;;4944837;28;20190;-54
2023/03/14 02:47:17;;;;;;;0.70;0.70;;;;;;;;;;4951432;28;20202;-54
2023/03/14 02:49:43;;;;;;;0.80;0.80;;;;;;;;;;4936380;28;20187;-53
2023/03/14 02:52:09;;;;;;;0.83;0.83;;;;;;;;;;4959564;28;20209;-54
2023/03/14 02:54:35;;;;;;;0.80;0.80;;;;;;;;;;4948405;28;20202;-54
2023/03/14 02:57:01;;;;;;;0.80;0.80;;;;;;;;;;4956887;28;20190;-54
2023/03/14 02:59:27;;;;;;;0.90;0.90;;;;;;;;;;4954968;28;20183;-54
2023/03/14 03:01:53;;;;;;;0.90;0.90;;;;;;;;;;4956297;28;20227;-54
2023/03/14 03:04:19;;;;;;;0.90;0.90;;;;;;;;;;4955787;28;20183;-54
2023/03/14 03:06:45;;;;;;;1.00;1.00;;;;;;;;;;4949453;28;20246;-54
2023/03/14 03:09:10;;;;;;;1.00;1.00;;;;;;;;;;4951632;28;20281;-54
2023/03/14 03:11:36;;;;;;;0.80;0.80;;;;;;;;;;4955850;28;20295;-55
2023/03/14 03:14:02;;;;;;;0.77;0.77;;;;;;;;;;4956194;28;20279;-54
2023/03/14 03:16:28;;;;;;;0.80;0.80;;;;;;;;;;4958501;28;20191;-55
2023/03/14 03:18:54;;;;;;;0.90;0.90;;;;;;;;;;4946762;28;20194;-54
2023/03/14 03:21:23;;;;;;;0.80;0.80;;;;;;;;;;4933464;28;20297;-54
2023/03/14 03:23:49;;;;;;;0.80;0.80;;;;;;;;;;4950223;28;20205;-55
2023/03/14 03:26:15;;;;;;;1.07;1.07;;;;;;;;;;4952997;28;20211;-55
2023/03/14 03:28:41;;;;;;;1.00;1.00;;;;;;;;;;4949589;28;20277;-55
2023/03/14 03:31:07;;;;;;;0.87;0.87;;;;;;;;;;4948668;28;20342;-55
2023/03/14 03:33:33;;;;;;;0.80;0.80;;;;;;;;;;4943955;28;20191;-56
2023/03/14 03:35:59;;;;;;;0.70;0.70;;;;;;;;;;4949947;28;20590;-55
2023/03/14 03:38:25;;;;;;;0.90;0.90;;;;;;;;;;4951408;28;20559;-54
2023/03/14 03:40:51;;;;;;;0.80;0.80;;;;;;;;;;4953526;28;20732;-54
2023/03/14 03:43:18;;;;;;;0.80;0.80;;;;;;;;;;4948926;28;20192;-54
2023/03/14 03:45:44;;;;;;;0.97;0.97;;;;;;;;;;4953137;28;20687;-54
2023/03/14 03:48:10;;;;;;;0.97;0.97;;;;;;;;;;4949884;28;20191;-54
2023/03/14 03:50:36;;;;;;;0.87;0.87;;;;;;;;;;4953531;28;20237;-55
2023/03/14 03:53:02;;;;;;;0.80;0.80;;;;;;;;;;4957746;28;20233;-54
2023/03/14 03:55:28;;;;;;;0.90;0.90;;;;;;;;;;4954244;28;20269;-54
2023/03/14 03:57:54;;;;;;;0.80;0.80;;;;;;;;;;4951313;28;20191;-54
2023/03/14 04:00:20;;;;;;;0.87;0.87;;;;;;;;;;4953909;28;20254;-54
2023/03/14 04:02:46;;;;;;;1.00;1.00;;;;;;;;;;4953840;28;20274;-54
2023/03/14 04:05:12;;;;;;;0.80;0.80;;;;;;;;;;4952828;28;20230;-55
2023/03/14 04:07:38;;;;;;;0.80;0.80;;;;;;;;;;4959370;28;20218;-55
2023/03/14 04:10:04;;;;;;;0.80;0.80;;;;;;;;;;4945498;28;20200;-54
2023/03/14 04:12:30;;;;;;;0.80;0.80;;;;;;;;;;4952861;28;20222;-55
2023/03/14 04:14:56;;;;;;;1.30;1.30;;;;;;;;;;4933695;28;20542;-54
2023/03/14 04:17:22;;;;;;;0.80;0.80;;;;;;;;;;4947531;28;20241;-55
2023/03/14 04:19:51;;;;;;;0.70;0.70;;;;;;;;;;4945278;28;20274;-55
2023/03/14 04:22:17;;;;;;;1.00;1.00;;;;;;;;;;4944794;28;20245;-54
2023/03/14 04:24:42;;;;;;;0.80;0.80;;;;;;;;;;4949130;28;20195;-54
2023/03/14 04:27:08;;;;;;;0.90;0.90;;;;;;;;;;4948402;28;20598;-53
2023/03/14 04:29:35;;;;;;;0.90;0.90;;;;;;;;;;4951631;28;20762;-55
2023/03/14 04:32:00;;;;;;;0.90;0.90;;;;;;;;;;4945965;28;20217;-59
2023/03/14 04:34:26;;;;;;;0.80;0.80;;;;;;;;;;4945206;28;20535;-54
2023/03/14 04:36:52;;;;;;;0.80;0.80;;;;;;;;;;4947290;28;20187;-55
2023/03/14 04:39:18;;;;;;;0.90;0.90;;;;;;;;;;4951303;28;20462;-54
2023/03/14 04:41:45;;;;;;;1.00;1.00;;;;;;;;;;4955088;28;20202;-54
2023/03/14 04:44:11;;;;;;;0.97;0.97;;;;;;;;;;4950788;28;20818;-55
2023/03/14 04:46:37;;;;;;;0.80;0.80;;;;;;;;;;4953061;28;20552;-55
2023/03/14 04:49:03;;;;;;;0.90;0.90;;;;;;;;;;4948300;28;20723;-54
2023/03/14 04:51:29;;;;;;;0.90;0.90;;;;;;;;;;4954703;28;20672;-54
2023/03/14 04:53:55;;;;;;;0.80;0.80;;;;;;;;;;4943369;28;20230;-55
2023/03/14 04:56:21;;;;;;;0.80;0.80;;;;;;;;;;4952422;28;20195;-54
2023/03/14 04:58:47;;;;;;;0.83;0.83;;;;;;;;;;4951525;28;20247;-54
2023/03/14 05:01:13;;;;;;;0.90;0.90;;;;;;;;;;4956602;28;20226;-54
2023/03/14 05:03:39;;;;;;;0.90;0.90;;;;;;;;;;4953093;28;20333;-55
2023/03/14 05:06:05;;;;;;;0.90;0.90;;;;;;;;;;4954408;28;20243;-54
2023/03/14 05:08:31;;;;;;;0.90;0.90;;;;;;;;;;4959927;28;20574;-54
2023/03/14 05:10:57;;;;;;;0.80;0.80;;;;;;;;;;4954618;28;20281;-54
2023/03/14 05:13:23;;;;;;;0.90;0.90;;;;;;;;;;4953725;28;20194;-54
2023/03/14 05:15:50;;;;;;;0.90;0.90;;;;;;;;;;4950369;28;20194;-54
2023/03/14 05:18:16;;;;;;;0.80;0.80;;;;;;;;;;4950045;28;20192;-55
2023/03/14 05:20:45;;;;;;;0.80;0.80;;;;;;;;;;4953549;28;20223;-54
2023/03/14 05:23:11;;;;;;;0.87;0.87;;;;;;;;;;4944490;28;20571;-54
2023/03/14 05:25:37;;;;;;;0.80;0.80;;;;;;;;;;4951025;28;20195;-54
2023/03/14 05:28:03;;;;;;;1.00;1.00;;;;;;;;;;4944207;28;20199;-54
2023/03/14 05:30:30;;;;;;;0.90;0.90;;;;;;;;;;4937175;28;20202;-54
2023/03/14 05:32:56;;;;;;;0.90;0.90;;;;;;;;;;4951910;28;20219;-54
2023/03/14 05:35:22;;;;;;;0.80;0.80;;;;;;;;;;4946070;28;20593;-54
2023/03/14 05:37:48;;;;;;;0.90;0.90;;;;;;;;;;4945892;28;20191;-54
2023/03/14 05:40:14;;;;;;;0.97;0.97;;;;;;;;;;4948048;28;20254;-55
2023/03/14 05:42:40;;;;;;;0.80;0.80;;;;;;;;;;4948425;28;20234;-54
2023/03/14 05:45:06;;;;;;;0.80;0.80;;;;;;;;;;4937275;28;20250;-54
2023/03/14 05:47:32;;;;;;;0.80;0.80;;;;;;;;;;4949078;28;20199;-54
2023/03/14 05:49:58;;;;;;;1.00;1.00;;;;;;;;;;4950298;28;20561;-54
2023/03/14 05:52:24;;;;;;;0.80;0.80;;;;;;;;;;4932581;28;20797;-55
2023/03/14 05:54:50;;;;;;;0.93;0.93;;;;;;;;;;4947172;28;20687;-54
2023/03/14 05:57:16;;;;;;;1.07;1.07;;;;;;;;;;4950730;28;20205;-54
2023/03/14 05:59:42;;;;;;;0.80;0.80;;;;;;;;;;4947577;28;20278;-54
2023/03/14 06:02:08;;;;;;;0.83;0.83;;;;;;;;;;4946603;28;20261;-54
2023/03/14 06:04:34;;;;;;;1.00;1.00;;;;;;;;;;4934920;28;20602;-54
2023/03/14 06:07:00;;;;;;;0.80;0.80;;;;;;;;;;4945220;28;20613;-54
2023/03/14 06:09:26;;;;;;;1.00;1.00;;;;;;;;;;4935488;28;20195;-57
2023/03/14 06:11:52;;;;;;;1.10;1.10;;;;;;;;;;4940748;28;20445;-54
2023/03/14 06:14:18;;;;;;;0.90;0.90;;;;;;;;;;4935879;28;20285;-54
2023/03/14 06:16:44;;;;;;;0.90;0.90;;;;;;;;;;4937964;28;20199;-54
2023/03/14 06:19:11;;;;;;;0.80;0.80;;;;;;;;;;4943248;28;20672;-54
2023/03/14 06:21:37;;;;;;;0.90;0.90;;;;;;;;;;4952799;28;20208;-56
2023/03/14 06:24:03;;;;;;;0.90;0.90;;;;;;;;;;4950480;28;20202;-55
2023/03/14 06:26:29;;;;;;;0.90;0.90;;;;;;;;;;4949985;28;20314;-54
2023/03/14 06:28:55;;;;;;;0.80;0.80;;;;;;;;;;4949816;28;20203;-54
2023/03/14 06:31:21;;;;;;;0.80;0.80;;;;;;;;;;4952355;28;20246;-54
2023/03/14 06:33:47;;;;;;;0.90;0.90;;;;;;;;;;4945858;28;20253;-54
2023/03/14 06:36:13;;;;;;;0.80;0.80;;;;;;;;;;4946177;28;20187;-54
2023/03/14 06:38:39;;;;;;;1.10;1.10;;;;;;;;;;4954094;28;20278;-54
2023/03/14 06:41:06;;;;;;;0.80;0.80;;;;;;;;;;4951360;28;20245;-54
2023/03/14 06:43:31;;;;;;;0.80;0.80;;;;;;;;;;4931449;28;20187;-54
2023/03/14 06:45:57;;;;;;;0.80;0.80;;;;;;;;;;4951645;28;21079;-54
2023/03/14 06:48:23;;;;;;;0.80;0.80;;;;;;;;;;4955326;28;20648;-53
2023/03/14 06:50:49;;;;;;;0.90;0.90;;;;;;;;;;4954382;28;20305;-53
2023/03/14 06:53:15;;;;;;;0.80;0.80;;;;;;;;;;4957780;28;20221;-53
2023/03/14 06:55:42;;;;;;;0.80;0.80;;;;;;;;;;4952952;28;20188;-53
2023/03/14 06:58:08;;;;;;;0.80;0.80;;;;;;;;;;4956386;28;20223;-54
2023/03/14 07:00:35;;;;;;;1.03;1.03;;;;;;;;;;4951899;28;21035;-54
2023/03/14 07:03:01;;;;;;;1.00;1.00;;;;;;;;;;4947595;28;20188;-53
2023/03/14 07:05:27;;;;;;;0.90;0.90;;;;;;;;;;4942335;28;20242;-54
2023/03/14 07:07:53;;;;;;;0.80;0.80;;;;;;;;;;4947080;28;20219;-54
2023/03/14 07:10:19;;;;;;;0.80;0.80;;;;;;;;;;4941979;28;20206;-54
2023/03/14 07:12:45;;;;;;;0.90;0.90;;;;;;;;;;4944064;28;20288;-54
2023/03/14 07:15:11;;;;;;;1.03;1.03;;;;;;;;;;4948228;28;20200;-54
2023/03/14 07:17:37;;;;;;;0.90;0.90;;;;;;;;;;4956027;28;20188;-53
2023/03/14 07:20:04;;;;;;;0.80;0.80;;;;;;;;;;4952700;28;20188;-54
2023/03/14 07:22:30;;;;;;;0.83;0.83;;;;;;;;;;4951959;28;20286;-54
2023/03/14 07:24:56;;;;;;;0.80;0.80;;;;;;;;;;4950555;28;20194;-54
2023/03/14 07:27:22;;;;;;;0.80;0.80;;;;;;;;;;4954438;28;20543;-54
2023/03/14 07:29:48;;;;;;;0.80;0.80;;;;;;;;;;4958130;28;20191;-53
2023/03/14 07:32:14;;;;;;;0.80;0.80;;;;;;;;;;4953198;28;21821;-54
2023/03/14 07:34:41;;;;;;;0.70;0.70;;;;;;;;;;4954850;28;20273;-54
2023/03/14 07:37:07;;;;;;;0.70;0.70;;;;;;;;;;4956016;28;20661;-56
2023/03/14 07:39:34;;;;;;;1.00;1.00;;;;;;;;;;4951738;28;20218;-54
2023/03/14 07:42:00;;;;;;;0.80;0.80;;;;;;;;;;4959526;28;20201;-54
2023/03/14 07:44:25;;;;;;;0.93;0.93;;;;;;;;;;4935613;28;20195;-51
2023/03/14 07:46:51;;;;;;;0.90;0.90;;;;;;;;;;4953842;28;20273;-53
2023/03/14 07:49:17;;;;;;;0.73;0.73;;;;;;;;;;4960838;28;20187;-52
2023/03/14 07:51:46;;;;;;;0.80;0.80;;;;;;;;;;4946705;28;20218;-52
2023/03/14 07:54:12;;;;;;;0.80;0.80;;;;;;;;;;4934948;28;20195;-52
2023/03/14 07:56:38;;;;;;;0.80;0.80;;;;;;;;;;4956026;28;20199;-53
2023/03/14 07:59:04;;;;;;;0.70;0.70;;;;;;;;;;4953534;28;21431;-52
2023/03/14 08:01:30;;;;;;;0.90;0.90;;;;;;;;;;4956983;28;20194;-53
2023/03/14 08:03:56;;;;;;;0.80;0.80;;;;;;;;;;4957879;28;20636;-52
2023/03/14 08:06:22;;;;;;;0.70;0.70;;;;;;;;;;4956513;28;20239;-52
2023/03/14 08:08:48;;;;;;;1.00;1.00;;;;;;;;;;4950809;28;20310;-53
2023/03/14 08:11:14;;;;;;;0.70;0.70;;;;;;;;;;4950722;28;20554;-52
2023/03/14 08:13:40;;;;;;;0.80;0.80;;;;;;;;;;4948129;28;20226;-52
2023/03/14 08:16:06;;;;;;;0.70;0.70;;;;;;;;;;4948614;28;20214;-52
2023/03/14 08:18:32;;;;;;;0.90;0.90;;;;;;;;;;4956192;28;20191;-52
2023/03/14 08:20:58;;;;;;;0.80;0.80;;;;;;;;;;4951641;28;20837;-52
2023/03/14 08:23:24;;;;;;;0.80;0.80;;;;;;;;;;4956991;28;20652;-52
2023/03/14 08:25:50;;;;;;;1.00;1.00;;;;;;;;;;4954226;28;20216;-52
2023/03/14 08:28:16;;;;;;;0.80;0.80;;;;;;;;;;4948911;28;21214;-52
2023/03/14 08:30:42;;;;;;;0.70;0.70;;;;;;;;;;4946988;28;20856;-52
2023/03/14 08:33:08;;;;;;;0.80;0.80;;;;;;;;;;4947483;28;20233;-52
2023/03/14 08:35:34;;;;;;;0.90;0.90;;;;;;;;;;4947393;28;20194;-52
2023/03/14 08:38:01;;;;;;;0.80;0.80;;;;;;;;;;4958124;28;20191;-51
2023/03/14 08:40:27;;;;;;;0.87;0.87;;;;;;;;;;4957478;28;20199;-52
2023/03/14 08:42:53;;;;;;;0.73;0.73;;;;;;;;;;4959443;28;20257;-53
2023/03/14 08:45:19;;;;;;;1.20;1.20;;;;;;;;;;4950043;28;20193;-52
2023/03/14 08:47:44;;;;;;;0.87;0.87;;;;;;;;;;4946755;28;20192;-53
2023/03/14 08:50:11;;;;;;;0.77;0.77;;;;;;;;;;4937219;28;20289;-54
2023/03/14 08:52:41;;;;;;;0.80;0.80;;;;;;;;;;4947080;28;20214;-52
2023/03/14 08:55:07;;;;;;;0.80;0.80;;;;;;;;;;4946927;28;20184;-53
2023/03/14 08:57:33;;;;;;;0.80;0.80;;;;;;;;;;4956375;28;20191;-52
2023/03/14 08:59:59;;;;;;;0.80;0.80;;;;;;;;;;4954414;28;20191;-53
2023/03/14 09:02:25;;;;;;;0.70;0.70;;;;;;;;;;4953097;28;20199;-53
2023/03/14 09:04:51;;;;;;;1.00;1.00;;;;;;;;;;4936707;28;20199;-53
2023/03/14 09:07:18;;;;;;;0.70;0.70;;;;;;;;;;4954902;28;20785;-53
2023/03/14 09:09:44;;;;;;;0.70;0.70;;;;;;;;;;4941171;28;20235;-53
2023/03/14 09:12:10;;;;;;;0.70;0.70;;;;;;;;;;4945921;28;20223;-54
2023/03/14 09:14:36;;;;;;;0.80;0.80;;;;;;;;;;4950884;28;20207;-53
2023/03/14 09:17:02;;;;;;;0.90;0.90;;;;;;;;;;4946046;28;20195;-52
2023/03/14 09:19:28;;;;;;;0.90;0.90;;;;;;;;;;4945628;28;20205;-53
2023/03/14 09:21:53;;;;;;;0.80;0.80;;;;;;;;;;4945554;28;20195;-52
2023/03/14 09:24:19;;;;;;;0.70;0.70;;;;;;;;;;4944004;28;20821;-52
2023/03/14 09:26:45;;;;;;;0.70;0.70;;;;;;;;;;4954953;28;20694;-52
2023/03/14 09:29:11;;;;;;;0.80;0.80;;;;;;;;;;4951187;28;20209;-52
2023/03/14 09:31:37;;;;;;;0.70;0.70;;;;;;;;;;4956293;28;20222;-52
2023/03/14 09:34:03;;;;;;;0.80;0.80;;;;;;;;;;4952930;28;20199;-52
2023/03/14 09:36:29;;;;;;;0.90;0.90;;;;;;;;;;4948706;28;20570;-52
2023/03/14 09:38:55;;;;;;;0.80;0.80;;;;;;;;;;4956257;28;20201;-53
2023/03/14 09:41:22;;;;;;;0.90;0.90;;;;;;;;;;4946301;28;21134;-52
2023/03/14 09:43:50;;;;;;;0.80;0.80;;;;;;;;;;4933128;28;20223;-52
2023/03/14 09:46:16;;;;;;;0.80;0.80;;;;;;;;;;4933528;28;20282;-52
2023/03/14 09:48:42;;;;;;;0.90;0.90;;;;;;;;;;4947630;28;20199;-52
2023/03/14 09:51:12;;;;;;;0.80;0.80;;;;;;;;;;4929176;28;20187;-52
2023/03/14 09:53:40;;;;;;;0.90;0.90;;;;;;;;;;4938826;28;20199;-52
2023/03/14 09:56:09;;;;;;;0.90;0.90;;;;;;;;;;4929582;28;20600;-53
2023/03/14 09:58:35;;;;;;;0.80;0.80;;;;;;;;;;4933890;28;21571;-52
2023/03/14 10:01:01;;;;;;;0.80;0.80;;;;;;;;;;4948254;28;20226;-52
2023/03/14 10:03:34;;;;;;;0.83;0.83;;;;;;;;;;4932384;28;20472;-52
2023/03/14 10:06:00;;;;;;;0.70;0.70;;;;;;;;;;4951446;28;20703;-52
2023/03/14 10:08:26;;;;;;;0.80;0.80;;;;;;;;;;4944952;28;20648;-52
2023/03/14 10:10:53;;;;;;;0.80;0.80;;;;;;;;;;4948331;28;20198;-52
2023/03/14 10:13:24;;;;;;;0.80;0.80;;;;;;;;;;4927673;28;20238;-52
2023/03/14 10:15:56;;;;;;;0.80;0.80;;;;;;;;;;4945664;28;20735;-52
2023/03/14 10:18:23;;;;;;;0.80;0.80;;;;;;;;;;4942031;28;20241;-52
2023/03/14 10:20:49;;;;;;;0.80;0.80;;;;;;;;;;4949857;28;20971;-52
2023/03/14 10:23:15;;;;;;;0.80;0.80;;;;;;;;;;4954472;28;20765;-52
2023/03/14 10:25:42;;;;;;;0.80;0.80;;;;;;;;;;4952823;28;20207;-52
2023/03/14 10:28:26;;;;;;;0.70;0.70;;;;;;;;;;4951779;28;20203;-52
2023/03/14 10:30:52;;;;;;;0.80;0.80;;;;;;;;;;4947327;28;20691;-52
2023/03/14 10:33:18;;;;;;;0.80;0.80;;;;;;;;;;4933368;28;20230;-53
2023/03/14 10:35:45;;;;;;;0.70;0.70;;;;;;;;;;4946878;28;20202;-52
2023/03/14 10:38:14;;;;;;;0.90;0.90;;;;;;;;;;4948725;28;20206;-54
2023/03/14 10:40:41;;;;;;;0.90;0.90;;;;;;;;;;4950225;28;20282;-51
2023/03/14 10:43:07;;;;;;;0.70;0.70;;;;;;;;;;4955309;28;20195;-53
2023/03/14 10:45:40;;;;;;;0.90;0.90;;;;;;;;;;4956798;28;20194;-52
2023/03/14 10:48:15;;;;;;;0.80;0.80;;;;;;;;;;4937791;28;20203;-52
2023/03/14 10:50:53;;;;;;;0.90;0.90;;;;;;;;;;4950568;28;20680;-56
2023/03/14 10:53:19;;;;;;;0.80;0.80;;;;;;;;;;4958820;28;20207;-53
2023/03/14 10:55:46;;;;;;;0.80;0.80;;;;;;;;;;4955012;28;20183;-51
2023/03/14 10:58:27;;;;;;;0.80;0.80;;;;;;;;;;4952047;28;20278;-52
2023/03/14 11:01:06;;;;;;;0.80;0.80;;;;;;;;;;4934484;28;20670;-52
2023/03/14 11:03:32;;;;;;;0.80;0.80;;;;;;;;;;4957447;28;21098;-52
2023/03/14 11:05:59;;;;;;;0.80;0.80;;;;;;;;;;4952622;28;20246;-52
2023/03/14 11:08:40;;;;;;;0.80;0.80;;;;;;;;;;4939734;28;20199;-52
2023/03/14 11:11:18;;;;;;;0.90;0.90;;;;;;;;;;4937081;28;20748;-52
2023/03/14 11:14:03;;;;;;;0.80;0.80;;;;;;;;;;4947484;28;20191;-52
2023/03/14 11:16:47;;;;;;;0.70;0.70;;;;;;;;;;4949903;28;20198;-52
2023/03/14 11:19:17;;;;;;;1.00;1.00;;;;;;;;;;4931107;28;20308;-53
2023/03/14 11:21:54;;;;;;;0.70;0.70;;;;;;;;;;4946255;28;20290;-52
2023/03/14 11:24:26;;;;;;;1.00;1.00;;;;;;;;;;4949021;28;20192;-52
2023/03/14 11:26:54;;;;;;;0.90;0.90;;;;;;;;;;4954210;28;20195;-52
2023/03/14 11:29:21;;;;;;;0.90;0.90;;;;;;;;;;4954318;28;20195;-51
2023/03/14 11:31:47;;;;;;;1.00;1.00;;;;;;;;;;4952869;28;20211;-52
2023/03/14 11:34:18;;;;;;;0.90;0.90;;;;;;;;;;4953795;28;20190;-51
2023/03/14 11:36:52;;;;;;;0.90;0.90;;;;;;;;;;4957361;28;20879;-51
2023/03/14 11:39:18;;;;;;;0.90;0.90;;;;;;;;;;4940969;28;20207;-52
2023/03/14 11:41:52;;;;;;;1.00;1.00;;;;;;;;;;4955383;28;20226;-52
2023/03/14 11:44:22;;;;;;;0.87;0.87;;;;;;;;;;4947927;28;20286;-52
2023/03/14 11:46:54;;;;;;;0.90;0.90;;;;;;;;;;4949845;28;20196;-52
2023/03/14 11:49:25;;;;;;;0.80;0.80;;;;;;;;;;4949406;28;20202;-52
2023/03/14 11:51:52;;;;;;;0.87;0.87;;;;;;;;;;4945238;28;20215;-52
2023/03/14 11:54:34;;;;;;;0.80;0.80;;;;;;;;;;4935147;28;20967;-52
2023/03/14 11:57:10;;;;;;;0.80;0.80;;;;;;;;;;4954039;28;20191;-52
2023/03/14 11:59:42;;;;;;;0.80;0.80;;;;;;;;;;4939650;28;20193;-52
2023/03/14 12:02:31;;;;;;;0.90;0.90;;;;;;;;;;4933169;28;20262;-51
2023/03/14 12:05:16;;;;;;;1.00;1.00;;;;;;;;;;4939450;28;20277;-52
2023/03/14 12:07:48;;;;;;;0.80;0.80;;;;;;;;;;4953513;28;20199;-52
2023/03/14 12:10:14;;;;;;;0.77;0.77;;;;;;;;;;4955015;28;20191;-51
2023/03/14 12:12:40;;;;;;;0.80;0.80;;;;;;;;;;4956648;28;20276;-52
2023/03/14 12:15:06;;;;;;;0.90;0.90;;;;;;;;;;4954335;28;20220;-53
2023/03/14 12:17:36;;;;;;;0.90;0.90;;;;;;;;;;4958819;28;20191;-52
2023/03/14 12:20:18;;;;;;;0.90;0.90;;;;;;;;;;4953514;28;20195;-52
2023/03/14 12:22:47;;;;;;;0.80;0.80;;;;;;;;;;4955525;28;20628;-52
2023/03/14 12:25:13;;;;;;;0.80;0.80;;;;;;;;;;4955557;28;20553;-52
2023/03/14 12:27:46;;;;;;;0.80;0.80;;;;;;;;;;4953587;28;20194;-51
2023/03/14 12:30:25;;;;;;;1.10;1.10;;;;;;;;;;4954324;28;20193;-52
2023/03/14 12:33:09;;;;;;;0.90;0.90;;;;;;;;;;4955699;28;20218;-52
2023/03/14 12:35:42;;;;;;;0.80;0.80;;;;;;;;;;4959078;28;20294;-51
2023/03/14 12:38:14;;;;;;;0.70;0.70;;;;;;;;;;4927183;28;20234;-52
2023/03/14 12:40:40;;;;;;;0.80;0.80;;;;;;;;;;4945850;28;20655;-52
2023/03/14 12:43:23;;;;;;;0.80;0.80;;;;;;;;;;4955705;28;20187;-52
2023/03/14 12:46:19;;;;;;;0.80;0.80;;;;;;;;;;4930632;28;20556;-51
2023/03/14 12:48:45;;;;;;;0.90;0.90;;;;;;;;;;4939863;28;20553;-53
2023/03/14 12:51:13;;;;;;;0.80;0.80;;;;;;;;;;4943390;28;20668;-52
2023/03/14 12:53:52;;;;;;;0.80;0.80;;;;;;;;;;4956102;28;20316;-52
2023/03/14 12:56:28;;;;;;;0.80;0.80;;;;;;;;;;4956377;28;20245;-52
2023/03/14 12:58:57;;;;;;;0.80;0.80;;;;;;;;;;4955275;28;20608;-53
2023/03/14 13:01:23;;;;;;;0.90;0.90;;;;;;;;;;4950630;28;20332;-52
2023/03/14 13:03:55;;;;;;;0.90;0.90;;;;;;;;;;4954819;28;20196;-53
2023/03/14 13:06:40;;;;;;;0.90;0.90;;;;;;;;;;4944816;28;20230;-53
2023/03/14 13:09:24;;;;;;;0.80;0.80;;;;;;;;;;4946008;28;20305;-53
2023/03/14 13:11:50;;;;;;;0.70;0.70;;;;;;;;;;4951845;28;20707;-51
2023/03/14 13:14:16;;;;;;;0.77;0.77;;;;;;;;;;4955930;28;20190;-52
2023/03/14 13:16:42;;;;;;;0.97;0.97;;;;;;;;;;4935519;28;20210;-51
2023/03/14 13:19:19;;;;;;;1.10;1.10;;;;;;;;;;4961876;28;20188;-52
2023/03/14 13:21:45;;;;;;;1.10;1.10;;;;;;;;;;4936986;28;20199;-53
2023/03/14 13:24:21;;;;;;;1.10;1.10;;;;;;;;;;4954763;28;20217;-52
2023/03/14 13:26:47;;;;;;;1.00;1.00;;;;;;;;;;4955537;28;20191;-52
2023/03/14 13:29:23;;;;;;;0.90;0.90;;;;;;;;;;4921849;28;20198;-52
2023/03/14 13:31:59;;;;;;;0.83;0.83;;;;;;;;;;4940997;28;20247;-52
2023/03/14 13:34:34;;;;;;;0.90;0.90;;;;;;;;;;4949469;28;20191;-52
2023/03/14 13:37:00;;;;;;;1.10;1.10;;;;;;;;;;4946432;28;20195;-53
2023/03/14 13:39:28;;;;;;;0.80;0.80;;;;;;;;;;4957129;28;20561;-52
2023/03/14 13:41:55;;;;;;;0.80;0.80;;;;;;;;;;4956573;28;20203;-52
2023/03/14 13:44:25;;;;;;;0.90;0.90;;;;;;;;;;4942271;28;20325;-53
2023/03/14 13:46:51;;;;;;;0.90;0.90;;;;;;;;;;4952622;28;20279;-53
2023/03/14 13:49:20;;;;;;;0.97;0.97;;;;;;;;;;4949009;28;20644;-52
2023/03/14 13:51:46;;;;;;;0.90;0.90;;;;;;;;;;4961221;28;20207;-52
2023/03/14 13:54:16;;;;;;;0.90;0.90;;;;;;;;;;4932375;28;20191;-52
2023/03/14 13:56:42;;;;;;;0.80;0.80;;;;;;;;;;4954932;28;20666;-52
2023/03/14 13:59:30;;;;;;;1.00;1.00;;;;;;;;;;4953641;28;20191;-52
2023/03/14 14:01:56;;;;;;;0.90;0.90;;;;;;;;;;4947469;28;20751;-52
2023/03/14 14:04:24;;;;;;;1.00;1.00;;;;;;;;;;4954630;28;20187;-53
2023/03/14 14:06:57;;;;;;;0.90;0.90;;;;;;;;;;4949496;28;20235;-53
2023/03/14 14:09:24;;;;;;;0.90;0.90;;;;;;;;;;4958402;28;20239;-52
2023/03/14 14:12:04;;;;;;;1.00;1.00;;;;;;;;;;4952725;28;20218;-52
2023/03/14 14:14:32;;;;;;;0.90;0.90;;;;;;;;;;4945259;28;20270;-52
2023/03/14 14:16:58;;;;;;;0.90;0.90;;;;;;;;;;4950625;28;20191;-52
2023/03/14 14:19:24;;;;;;;0.90;0.90;;;;;;;;;;4948648;28;20210;-52
2023/03/14 14:21:50;;;;;;;0.90;0.90;;;;;;;;;;4955616;28;20640;-52
2023/03/14 14:24:16;;;;;;;0.90;0.90;;;;;;;;;;4940458;28;20565;-52
2023/03/14 14:26:47;;;;;;;0.90;0.90;;;;;;;;;;4922593;28;20215;-52
2023/03/14 14:29:22;;;;;;;1.00;1.00;;;;;;;;;;4941084;28;20187;-53
2023/03/14 14:31:48;;;;;;;0.93;0.93;;;;;;;;;;4932894;28;20261;-52
2023/03/14 14:34:19;;;;;;;1.00;1.00;;;;;;;;;;4932650;28;21031;-52
2023/03/14 14:36:49;;;;;;;0.90;0.90;;;;;;;;;;4942677;28;20184;-53
2023/03/14 14:39:19;;;;;;;0.90;0.90;;;;;;;;;;4927080;28;20286;-52
2023/03/14 14:41:45;;;;;;;0.90;0.90;;;;;;;;;;4951019;28;20198;-52
2023/03/14 14:44:11;;;;;;;0.90;0.90;;;;;;;;;;4940391;28;20218;-51
2023/03/14 14:46:37;;;;;;;0.80;0.80;;;;;;;;;;4935073;28;20194;-52
2023/03/14 14:49:04;;;;;;;0.93;0.93;;;;;;;;;;4952435;28;20274;-52